sensor_id;sensor_type;location;lat;lon;timestamp;pressure;altitude;pressure_sealevel;temperature;humidity
45713;BME280;44920;52.792;18.264;2022-12-07T00:00:53;99932.11;;;1.81;100.00
45713;BME280;44920;52.792;18.264;2022-12-07T00:03:20;99932.30;;;1.80;100.00
45713;BME280;44920;52.792;18.264;2022-12-07T00:05:47;99931.05;;;1.78;100.00
45713;BME280;44920;52.792;18.264;2022-12-07T00:08:14;99931.33;;;1.75;100.00
45713;BME280;44920;52.792;18.264;2022-12-07T00:10:41;99929.23;;;1.76;100.00
45713;BME280;44920;52.792;18.264;2022-12-07T00:13:08;99933.63;;;1.78;100.00
45713;BME280;44920;52.792;18.264;2022-12-07T00:15:35;99931.02;;;1.77;100.00
45713;BME280;44920;52.792;18.264;2022-12-07T00:18:02;99927.36;;;1.76;100.00
45713;BME280;44920;52.792;18.264;2022-12-07T00:20:29;99930.17;;;1.79;100.00
45713;BME280;44920;52.792;18.264;2022-12-07T00:22:57;99927.34;;;1.81;100.00
45713;BME280;44920;52.792;18.264;2022-12-07T00:25:25;99924.92;;;1.81;100.00
45713;BME280;44920;52.792;18.264;2022-12-07T00:27:53;99926.24;;;1.81;100.00
45713;BME280;44920;52.792;18.264;2022-12-07T00:30:23;99919.17;;;1.78;100.00
45713;BME280;44920;52.792;18.264;2022-12-07T00:32:50;99918.54;;;1.74;100.00
45713;BME280;44920;52.792;18.264;2022-12-07T00:35:17;99915.73;;;1.73;100.00
45713;BME280;44920;52.792;18.264;2022-12-07T00:37:44;99914.83;;;1.72;100.00
45713;BME280;44920;52.792;18.264;2022-12-07T00:40:11;99916.59;;;1.71;100.00
45713;BME280;44920;52.792;18.264;2022-12-07T00:42:38;99915.50;;;1.71;100.00
45713;BME280;44920;52.792;18.264;2022-12-07T00:45:06;99915.32;;;1.72;100.00
45713;BME280;44920;52.792;18.264;2022-12-07T00:47:33;99915.02;;;1.71;100.00
45713;BME280;44920;52.792;18.264;2022-12-07T00:50:00;99913.55;;;1.70;100.00
45713;BME280;44920;52.792;18.264;2022-12-07T00:52:27;99919.77;;;1.71;100.00
45713;BME280;44920;52.792;18.264;2022-12-07T00:54:54;99910.80;;;1.73;100.00
45713;BME280;44920;52.792;18.264;2022-12-07T00:57:21;99912.33;;;1.73;100.00
45713;BME280;44920;52.792;18.264;2022-12-07T00:59:48;99908.92;;;1.76;100.00
45713;BME280;44920;52.792;18.264;2022-12-07T01:02:15;99899.63;;;1.78;100.00
45713;BME280;44920;52.792;18.264;2022-12-07T01:04:42;99904.77;;;1.81;100.00
45713;BME280;44920;52.792;18.264;2022-12-07T01:07:09;99904.23;;;1.83;100.00
45713;BME280;44920;52.792;18.264;2022-12-07T01:09:36;99898.77;;;1.83;100.00
45713;BME280;44920;52.792;18.264;2022-12-07T01:12:04;99897.27;;;1.81;100.00
45713;BME280;44920;52.792;18.264;2022-12-07T01:14:31;99895.63;;;1.81;100.00
45713;BME280;44920;52.792;18.264;2022-12-07T01:16:58;99895.37;;;1.81;100.00
45713;BME280;44920;52.792;18.264;2022-12-07T01:19:25;99892.84;;;1.78;100.00
45713;BME280;44920;52.792;18.264;2022-12-07T01:21:52;99892.42;;;1.78;100.00
45713;BME280;44920;52.792;18.264;2022-12-07T01:24:19;99892.52;;;1.78;100.00
45713;BME280;44920;52.792;18.264;2022-12-07T01:26:49;99886.86;;;1.79;100.00
45713;BME280;44920;52.792;18.264;2022-12-07T01:29:16;99882.65;;;1.80;100.00
45713;BME280;44920;52.792;18.264;2022-12-07T01:31:43;99885.02;;;1.83;100.00
45713;BME280;44920;52.792;18.264;2022-12-07T01:34:10;99882.33;;;1.86;100.00
45713;BME280;44920;52.792;18.264;2022-12-07T01:36:37;99876.86;;;1.87;100.00
45713;BME280;44920;52.792;18.264;2022-12-07T01:39:06;99873.55;;;1.88;100.00
45713;BME280;44920;52.792;18.264;2022-12-07T01:41:41;99874.16;;;1.88;100.00
45713;BME280;44920;52.792;18.264;2022-12-07T01:44:20;99873.36;;;1.87;100.00
45713;BME280;44920;52.792;18.264;2022-12-07T01:46:50;99866.69;;;1.87;100.00
45713;BME280;44920;52.792;18.264;2022-12-07T01:49:23;99868.71;;;1.87;100.00
45713;BME280;44920;52.792;18.264;2022-12-07T01:51:57;99869.15;;;1.85;100.00
45713;BME280;44920;52.792;18.264;2022-12-07T01:54:25;99865.63;;;1.82;100.00
45713;BME280;44920;52.792;18.264;2022-12-07T01:56:54;99860.17;;;1.78;100.00
45713;BME280;44920;52.792;18.264;2022-12-07T01:59:24;99860.33;;;1.77;100.00
45713;BME280;44920;52.792;18.264;2022-12-07T02:01:54;99855.16;;;1.75;100.00
45713;BME280;44920;52.792;18.264;2022-12-07T02:04:21;99851.81;;;1.75;100.00
45713;BME280;44920;52.792;18.264;2022-12-07T02:06:49;99853.75;;;1.77;100.00
45713;BME280;44920;52.792;18.264;2022-12-07T02:09:17;99850.21;;;1.78;100.00
45713;BME280;44920;52.792;18.264;2022-12-07T02:11:44;99847.27;;;1.78;100.00
45713;BME280;44920;52.792;18.264;2022-12-07T02:14:11;99845.84;;;1.78;100.00
45713;BME280;44920;52.792;18.264;2022-12-07T02:28:09;99839.59;;;1.80;100.00
45713;BME280;44920;52.792;18.264;2022-12-07T02:30:42;99837.95;;;1.81;100.00
45713;BME280;44920;52.792;18.264;2022-12-07T02:33:37;99833.58;;;1.83;100.00
45713;BME280;44920;52.792;18.264;2022-12-07T02:36:15;99828.82;;;1.87;100.00
45713;BME280;44920;52.792;18.264;2022-12-07T02:38:52;99825.88;;;1.89;100.00
45713;BME280;44920;52.792;18.264;2022-12-07T02:41:29;99825.43;;;1.93;100.00
45713;BME280;44920;52.792;18.264;2022-12-07T02:44:04;99824.86;;;1.95;100.00
45713;BME280;44920;52.792;18.264;2022-12-07T02:46:40;99824.55;;;1.97;100.00
45713;BME280;44920;52.792;18.264;2022-12-07T02:49:09;99825.57;;;1.97;100.00
45713;BME280;44920;52.792;18.264;2022-12-07T02:51:41;99825.43;;;1.98;100.00
45713;BME280;44920;52.792;18.264;2022-12-07T02:54:18;99826.09;;;1.99;100.00
45713;BME280;44920;52.792;18.264;2022-12-07T02:59:25;99821.81;;;2.05;100.00
45713;BME280;44920;52.792;18.264;2022-12-07T03:02:35;99821.61;;;2.09;100.00
45713;BME280;44920;52.792;18.264;2022-12-07T03:08:00;99815.64;;;2.17;100.00
45713;BME280;44920;52.792;18.264;2022-12-07T03:10:40;99814.89;;;2.21;100.00
45713;BME280;44920;52.792;18.264;2022-12-07T03:16:17;99815.13;;;2.27;100.00
45713;BME280;44920;52.792;18.264;2022-12-07T03:21:16;99809.41;;;2.35;100.00
45713;BME280;44920;52.792;18.264;2022-12-07T03:23:48;99809.23;;;2.35;100.00
45713;BME280;44920;52.792;18.264;2022-12-07T03:26:18;99811.26;;;2.35;100.00
45713;BME280;44920;52.792;18.264;2022-12-07T03:28:51;99813.13;;;2.35;100.00
45713;BME280;44920;52.792;18.264;2022-12-07T03:31:23;99808.36;;;2.35;100.00
45713;BME280;44920;52.792;18.264;2022-12-07T03:34:03;99808.97;;;2.37;100.00
45713;BME280;44920;52.792;18.264;2022-12-07T03:40:05;99803.72;;;2.38;100.00
45713;BME280;44920;52.792;18.264;2022-12-07T03:42:21;99803.66;;;2.40;100.00
45713;BME280;44920;52.792;18.264;2022-12-07T03:44:49;99798.92;;;2.43;100.00
45713;BME280;44920;52.792;18.264;2022-12-07T03:49:58;99795.39;;;2.46;100.00
45713;BME280;44920;52.792;18.264;2022-12-07T03:52:48;99795.23;;;2.48;100.00
45713;BME280;44920;52.792;18.264;2022-12-07T03:55:35;99795.39;;;2.48;100.00
45713;BME280;44920;52.792;18.264;2022-12-07T03:58:08;99793.33;;;2.47;100.00
45713;BME280;44920;52.792;18.264;2022-12-07T04:00:36;99792.76;;;2.46;100.00
45713;BME280;44920;52.792;18.264;2022-12-07T04:03:04;99795.80;;;2.44;100.00
45713;BME280;44920;52.792;18.264;2022-12-07T04:05:31;99795.81;;;2.43;100.00
45713;BME280;44920;52.792;18.264;2022-12-07T04:07:58;99795.97;;;2.43;100.00
45713;BME280;44920;52.792;18.264;2022-12-07T04:10:25;99797.38;;;2.43;100.00
45713;BME280;44920;52.792;18.264;2022-12-07T04:12:52;99800.05;;;2.43;100.00
45713;BME280;44920;52.792;18.264;2022-12-07T04:15:19;99801.60;;;2.43;100.00
45713;BME280;44920;52.792;18.264;2022-12-07T04:17:46;99800.80;;;2.42;100.00
45713;BME280;44920;52.792;18.264;2022-12-07T04:20:13;99800.92;;;2.42;100.00
45713;BME280;44920;52.792;18.264;2022-12-07T04:22:41;99799.92;;;2.41;100.00
45713;BME280;44920;52.792;18.264;2022-12-07T04:25:08;99795.31;;;2.39;100.00
45713;BME280;44920;52.792;18.264;2022-12-07T04:27:35;99799.59;;;2.37;100.00
45713;BME280;44920;52.792;18.264;2022-12-07T04:30:02;99796.98;;;2.34;100.00
45713;BME280;44920;52.792;18.264;2022-12-07T04:32:29;99797.27;;;2.32;100.00
45713;BME280;44920;52.792;18.264;2022-12-07T04:34:57;99798.63;;;2.28;100.00
45713;BME280;44920;52.792;18.264;2022-12-07T04:37:24;99798.79;;;2.24;100.00
45713;BME280;44920;52.792;18.264;2022-12-07T04:39:51;99798.36;;;2.22;100.00
45713;BME280;44920;52.792;18.264;2022-12-07T04:42:18;99792.71;;;2.19;100.00
45713;BME280;44920;52.792;18.264;2022-12-07T04:44:45;99792.04;;;2.14;100.00
45713;BME280;44920;52.792;18.264;2022-12-07T04:47:12;99789.63;;;2.07;100.00
45713;BME280;44920;52.792;18.264;2022-12-07T04:49:39;99788.70;;;2.00;100.00
45713;BME280;44920;52.792;18.264;2022-12-07T04:52:06;99787.79;;;1.92;100.00
45713;BME280;44920;52.792;18.264;2022-12-07T04:54:33;99785.87;;;1.86;100.00
45713;BME280;44920;52.792;18.264;2022-12-07T04:57:00;99785.27;;;1.80;100.00
45713;BME280;44920;52.792;18.264;2022-12-07T04:59:27;99786.54;;;1.75;100.00
45713;BME280;44920;52.792;18.264;2022-12-07T05:01:54;99785.05;;;1.69;100.00
45713;BME280;44920;52.792;18.264;2022-12-07T05:04:21;99782.79;;;1.62;100.00
45713;BME280;44920;52.792;18.264;2022-12-07T05:06:48;99781.81;;;1.56;100.00
45713;BME280;44920;52.792;18.264;2022-12-07T05:09:15;99780.00;;;1.49;100.00
45713;BME280;44920;52.792;18.264;2022-12-07T05:11:42;99780.66;;;1.43;100.00
45713;BME280;44920;52.792;18.264;2022-12-07T05:14:20;99776.73;;;1.37;100.00
45713;BME280;44920;52.792;18.264;2022-12-07T05:16:49;99778.16;;;1.32;100.00
45713;BME280;44920;52.792;18.264;2022-12-07T05:19:17;99776.56;;;1.28;100.00
45713;BME280;44920;52.792;18.264;2022-12-07T05:21:45;99782.64;;;1.26;100.00
45713;BME280;44920;52.792;18.264;2022-12-07T05:24:13;99780.85;;;1.24;100.00
45713;BME280;44920;52.792;18.264;2022-12-07T05:26:41;99777.68;;;1.22;100.00
45713;BME280;44920;52.792;18.264;2022-12-07T05:29:11;99778.45;;;1.20;100.00
45713;BME280;44920;52.792;18.264;2022-12-07T05:31:39;99778.30;;;1.16;100.00
45713;BME280;44920;52.792;18.264;2022-12-07T05:34:06;99783.85;;;1.10;100.00
45713;BME280;44920;52.792;18.264;2022-12-07T05:36:33;99781.98;;;1.05;100.00
45713;BME280;44920;52.792;18.264;2022-12-07T05:39:00;99777.30;;;0.99;100.00
45713;BME280;44920;52.792;18.264;2022-12-07T05:41:27;99780.45;;;0.95;100.00
45713;BME280;44920;52.792;18.264;2022-12-07T05:44:13;99779.05;;;0.91;100.00
45713;BME280;44920;52.792;18.264;2022-12-07T05:46:40;99780.69;;;0.87;100.00
45713;BME280;44920;52.792;18.264;2022-12-07T05:49:07;99788.37;;;0.83;100.00
45713;BME280;44920;52.792;18.264;2022-12-07T05:51:34;99784.15;;;0.79;100.00
45713;BME280;44920;52.792;18.264;2022-12-07T05:54:02;99784.52;;;0.76;100.00
45713;BME280;44920;52.792;18.264;2022-12-07T05:56:29;99779.19;;;0.71;100.00
45713;BME280;44920;52.792;18.264;2022-12-07T05:58:56;99779.27;;;0.67;100.00
45713;BME280;44920;52.792;18.264;2022-12-07T06:01:41;99774.66;;;0.66;100.00
45713;BME280;44920;52.792;18.264;2022-12-07T06:04:09;99772.88;;;0.65;100.00
45713;BME280;44920;52.792;18.264;2022-12-07T06:06:36;99778.69;;;0.64;100.00
45713;BME280;44920;52.792;18.264;2022-12-07T06:09:03;99775.37;;;0.63;100.00
45713;BME280;44920;52.792;18.264;2022-12-07T06:11:30;99774.00;;;0.64;100.00
45713;BME280;44920;52.792;18.264;2022-12-07T06:17:39;99783.68;;;0.65;100.00
45713;BME280;44920;52.792;18.264;2022-12-07T06:20:07;99782.54;;;0.63;100.00
45713;BME280;44920;52.792;18.264;2022-12-07T06:22:34;99787.23;;;0.60;100.00
45713;BME280;44920;52.792;18.264;2022-12-07T06:25:01;99782.83;;;0.59;100.00
45713;BME280;44920;52.792;18.264;2022-12-07T06:27:28;99783.21;;;0.60;100.00
45713;BME280;44920;52.792;18.264;2022-12-07T06:29:55;99782.16;;;0.60;100.00
45713;BME280;44920;52.792;18.264;2022-12-07T06:32:22;99784.48;;;0.61;100.00
45713;BME280;44920;52.792;18.264;2022-12-07T06:34:49;99786.42;;;0.63;100.00
45713;BME280;44920;52.792;18.264;2022-12-07T06:37:16;99788.10;;;0.63;100.00
45713;BME280;44920;52.792;18.264;2022-12-07T06:39:43;99792.31;;;0.63;100.00
45713;BME280;44920;52.792;18.264;2022-12-07T06:42:10;99791.92;;;0.63;100.00
45713;BME280;44920;52.792;18.264;2022-12-07T06:44:37;99788.75;;;0.64;100.00
45713;BME280;44920;52.792;18.264;2022-12-07T06:47:04;99788.40;;;0.64;100.00
45713;BME280;44920;52.792;18.264;2022-12-07T06:49:32;99789.15;;;0.65;100.00
45713;BME280;44920;52.792;18.264;2022-12-07T06:51:59;99786.11;;;0.67;100.00
45713;BME280;44920;52.792;18.264;2022-12-07T06:54:26;99784.95;;;0.70;100.00
45713;BME280;44920;52.792;18.264;2022-12-07T06:56:54;99785.45;;;0.73;100.00
45713;BME280;44920;52.792;18.264;2022-12-07T06:59:21;99788.02;;;0.75;100.00
45713;BME280;44920;52.792;18.264;2022-12-07T07:01:49;99788.09;;;0.77;100.00
45713;BME280;44920;52.792;18.264;2022-12-07T07:04:16;99790.52;;;0.78;100.00
45713;BME280;44920;52.792;18.264;2022-12-07T07:06:43;99784.37;;;0.82;100.00
45713;BME280;44920;52.792;18.264;2022-12-07T07:09:10;99784.08;;;0.85;100.00
45713;BME280;44920;52.792;18.264;2022-12-07T07:11:37;99781.19;;;0.88;100.00
45713;BME280;44920;52.792;18.264;2022-12-07T07:14:04;99782.65;;;0.92;100.00
45713;BME280;44920;52.792;18.264;2022-12-07T07:16:31;99774.04;;;0.96;100.00
